Time;durP1;ratioP1;P1;durP2;ratioP2;P2;SDS_P1;SDS_P2;PMS_P1;PMS_P2;Temp;Humidity;BMP_temperature;BMP_pressure;BME280_temperature;BME280_humidity;BME280_pressure;Samples;Min_cycle;Max_cycle;Signal;HPM_P1;HPM_P2
2022/02/15 17:11:20;;;;;;;18.73;11.68;;;;;;;7.73;88.18;101099.88;4957673;27;4291129;-84
2022/02/15 17:13:46;;;;;;;23.60;15.45;;;;;;;7.69;87.71;101087.59;5070426;28;20036;-78
2022/02/15 17:16:13;;;;;;;16.75;12.23;;;;;;;7.67;86.86;101092.66;5088325;28;20040;-77
2022/02/15 17:18:39;;;;;;;20.83;13.43;;;;;;;7.75;86.49;101095.69;5088224;28;20432;-79
2022/02/15 17:21:06;;;;;;;33.08;25.27;;;;;;;7.81;86.25;101088.31;5087648;28;20399;-77
2022/02/15 17:23:36;;;;;;;20.45;14.57;;;;;;;7.86;86.05;101086.94;5087807;28;20449;-75
2022/02/15 17:26:03;;;;;;;19.33;12.40;;;;;;;7.90;85.97;101095.69;5036957;28;20036;-78
2022/02/15 17:28:28;;;;;;;22.55;14.82;;;;;;;7.74;85.39;101073.38;5089745;28;20028;-81
2022/02/15 17:30:54;;;;;;;21.83;15.18;;;;;;;7.83;85.71;101102.16;5087657;28;20525;-72
2022/02/15 17:33:20;;;;;;;23.85;13.98;;;;;;;7.79;85.03;101082.22;5087638;28;20031;-74
2022/02/15 17:35:46;;;;;;;18.17;13.52;;;;;;;7.77;85.04;101084.69;5087923;28;20050;-71
2022/02/15 17:38:11;;;;;;;22.08;12.88;;;;;;;7.83;85.99;101103.88;5087613;28;20111;-72
2022/02/15 17:40:37;;;;;;;17.00;12.10;;;;;;;7.83;84.29;101097.03;5087590;28;20496;-74
2022/02/15 17:43:05;;;;;;;18.75;12.45;;;;;;;7.87;84.54;101106.69;5087462;28;20047;-71
2022/02/15 17:45:30;;;;;;;21.45;13.85;;;;;;;7.72;85.62;101109.25;5086720;28;20115;-71
2022/02/15 17:47:56;;;;;;;19.00;13.68;;;;;;;7.56;86.28;101092.06;5087138;28;20167;-68
2022/02/15 17:50:22;;;;;;;21.40;12.77;;;;;;;7.80;85.39;101124.22;5086515;28;20024;-72
2022/02/15 17:52:48;;;;;;;27.40;19.10;;;;;;;7.73;86.16;101110.16;5034305;28;20111;-71
2022/02/15 17:55:13;;;;;;;23.35;14.43;;;;;;;7.74;87.25;101128.22;5069221;28;20120;-71
2022/02/15 17:57:39;;;;;;;20.85;13.50;;;;;;;7.74;87.71;101125.66;5087208;28;20040;-71
2022/02/15 18:00:05;;;;;;;23.95;13.85;;;;;;;7.58;88.93;101123.84;5087404;28;20478;-73
2022/02/15 18:02:30;;;;;;;18.75;11.27;;;;;;;7.21;89.53;101093.38;5080061;28;20137;-68
2022/02/15 18:04:57;;;;;;;18.55;13.25;;;;;;;7.21;91.03;101123.31;5086967;28;20493;-74
2022/02/15 18:07:22;;;;;;;18.27;12.35;;;;;;;7.29;90.01;101123.00;5086862;28;20028;-69
2022/02/15 18:09:48;;;;;;;18.77;12.80;;;;;;;7.16;90.13;101089.66;5085825;28;20186;-67
2022/02/15 18:12:14;;;;;;;20.35;14.98;;;;;;;7.25;89.74;101110.78;5087015;28;20039;-69
2022/02/15 18:14:41;;;;;;;20.10;14.27;;;;;;;7.25;89.84;101117.56;5087017;28;20028;-68
2022/02/15 18:17:08;;;;;;;20.48;14.55;;;;;;;7.35;89.34;101129.28;5087053;28;20044;-73
2022/02/15 18:19:34;;;;;;;19.60;14.95;;;;;;;7.35;88.61;101119.03;5086795;28;20036;-74
2022/02/15 18:22:00;;;;;;;19.50;13.68;;;;;;;7.21;87.78;101088.25;5077167;28;20548;-72
2022/02/15 18:24:28;;;;;;;20.25;13.80;;;;;;;7.44;88.25;101120.47;5073226;28;20086;-75
2022/02/15 18:26:54;;;;;;;20.30;14.02;;;;;;;7.31;88.98;101117.94;5073090;28;20024;-74
2022/02/15 18:29:19;;;;;;;20.33;14.13;;;;;;;7.11;88.65;101073.97;5055326;28;20461;-72
2022/02/15 18:32:03;;;;;;;21.50;15.10;;;;;;;7.36;89.06;101123.38;5072864;28;20029;-73
2022/02/15 18:34:42;;;;;;;23.50;13.85;;;;;;;7.21;90.73;101118.19;5072749;28;20024;-73
2022/02/15 18:37:12;;;;;;;21.77;14.55;;;;;;;7.19;91.21;101123.25;5073301;28;20039;-71
2022/02/15 18:39:39;;;;;;;22.45;14.40;;;;;;;7.18;89.75;101126.59;5072853;28;20131;-73
2022/02/15 18:42:06;;;;;;;20.92;13.15;;;;;;;7.21;88.50;101129.34;5072819;28;20082;-75
2022/02/15 18:44:31;;;;;;;20.40;13.95;;;;;;;7.10;89.26;101118.44;5072678;28;20031;-73
2022/02/15 18:46:58;;;;;;;19.85;13.82;;;;;;;7.16;88.92;101120.47;5072779;28;20024;-70
2022/02/15 18:49:25;;;;;;;19.45;13.75;;;;;;;7.23;88.60;101126.88;5072882;28;20020;-72
2022/02/15 18:51:51;;;;;;;21.75;13.50;;;;;;;7.23;87.64;101130.31;5073120;28;20035;-75
2022/02/15 18:54:21;;;;;;;20.70;13.43;;;;;;;7.26;88.14;101137.31;5072839;28;20024;-71
2022/02/15 18:56:46;;;;;;;19.83;14.02;;;;;;;7.15;87.28;101116.13;5073022;28;20028;-77
2022/02/15 18:59:12;;;;;;;23.45;17.10;;;;;;;6.81;88.33;101060.16;5072681;28;20024;-72
2022/02/15 19:01:39;;;;;;;23.02;13.82;;;;;;;7.07;89.06;101128.50;5072203;28;20024;-74
2022/02/15 19:04:04;;;;;;;20.38;13.20;;;;;;;7.05;91.27;101121.50;5072568;28;20036;-70
2022/02/15 19:06:31;;;;;;;20.02;13.85;;;;;;;7.03;91.77;101120.50;5072604;28;20418;-76
2022/02/15 19:08:59;;;;;;;21.50;13.57;;;;;;;7.00;91.83;101125.47;5072368;28;20028;-72
2022/02/15 19:11:24;;;;;;;21.45;13.07;;;;;;;6.92;92.77;101128.44;5071613;28;20516;-75
2022/02/15 19:13:50;;;;;;;19.13;13.13;;;;;;;6.71;93.18;101101.44;5066898;28;20044;-73
2022/02/15 19:16:16;;;;;;;18.13;13.07;;;;;;;6.61;93.17;101082.00;5072555;28;20032;-73
2022/02/15 19:18:44;;;;;;;20.23;14.52;;;;;;;6.71;93.53;101109.13;5072234;28;20120;-73
2022/02/15 19:21:11;;;;;;;17.83;12.90;;;;;;;6.79;93.67;101120.75;5072322;28;20036;-76
2022/02/15 19:23:37;;;;;;;19.80;14.07;;;;;;;6.85;92.95;101123.69;5072095;28;20124;-72
2022/02/15 19:26:05;;;;;;;21.02;13.43;;;;;;;6.82;91.74;101126.09;5071916;28;20103;-73
2022/02/15 19:28:31;;;;;;;19.65;13.15;;;;;;;6.78;91.05;101119.00;5037501;28;20036;-72
2022/02/15 19:30:56;;;;;;;19.67;13.35;;;;;;;6.72;90.73;101110.91;5071009;28;20580;-71
2022/02/15 19:33:23;;;;;;;19.33;13.77;;;;;;;6.69;92.46;101124.44;5070288;28;20020;-73
2022/02/15 19:35:50;;;;;;;18.88;12.90;;;;;;;6.41;94.38;101129.50;5071452;28;20028;-74
2022/02/15 19:38:16;;;;;;;20.77;13.15;;;;;;;6.30;95.95;101129.66;5071356;28;20024;-73
2022/02/15 19:40:41;;;;;;;21.52;13.60;;;;;;;6.22;92.78;101102.66;4985969;28;20047;-75
2022/02/15 19:43:08;;;;;;;16.20;12.40;;;;;;;6.23;92.60;101127.50;5070806;28;20042;-74
2022/02/15 19:45:38;;;;;;;19.15;13.50;;;;;;;6.16;93.24;101133.03;5028007;28;20052;-74
2022/02/15 19:48:04;;;;;;;;;;;;;;;6.16;94.46;101135.59;5028582;28;20042;-70
2022/02/15 19:50:29;;;;;;;23.25;13.98;;;;;;;6.10;94.45;101128.38;5028311;28;19924;-74
2022/02/15 19:52:55;;;;;;;22.65;14.85;;;;;;;6.06;93.51;101116.16;5028353;28;20030;-75
2022/02/15 19:55:20;;;;;;;19.33;14.68;;;;;;;5.91;93.81;101138.19;5028108;28;20042;-73
2022/02/15 19:57:46;;;;;;;23.60;16.48;;;;;;;5.92;93.61;101145.97;5027981;28;20029;-74
2022/02/15 20:00:12;;;;;;;31.33;20.45;;;;;;;5.67;94.04;101097.31;5028220;28;20064;-72
2022/02/15 20:02:40;;;;;;;28.33;18.30;;;;;;;5.92;94.43;101124.56;5028114;28;20033;-73
2022/02/15 20:05:07;;;;;;;27.37;17.77;;;;;;;6.07;92.88;101141.00;5011680;28;20030;-73
2022/02/15 20:07:32;;;;;;;26.52;17.33;;;;;;;5.99;92.38;101144.72;5028603;28;20777;-74
2022/02/15 20:09:58;;;;;;;25.67;17.80;;;;;;;5.78;92.40;101150.16;5028128;28;20053;-76
2022/02/15 20:12:24;;;;;;;39.25;24.08;;;;;;;5.49;93.79;101158.44;5024354;28;20045;-74
2022/02/15 20:14:49;;;;;;;44.10;24.02;;;;;;;5.39;94.05;101163.72;5027866;28;20025;-74
2022/02/15 20:17:15;;;;;;;42.83;25.08;;;;;;;5.22;94.49;101157.41;5060966;28;20067;-75
2022/02/15 20:19:40;;;;;;;38.33;23.80;;;;;;;4.70;95.24;101107.81;5070140;28;20403;-73
2022/02/15 20:22:06;;;;;;;37.50;24.23;;;;;;;4.50;95.66;101110.63;5069675;28;20100;-74
2022/02/15 20:24:33;;;;;;;43.05;25.17;;;;;;;4.32;96.33;101131.50;5070121;28;20498;-73
2022/02/15 20:27:00;;;;;;;43.65;27.75;;;;;;;4.37;97.54;101176.22;5069867;28;20558;-75
2022/02/15 20:29:27;;;;;;;43.22;28.30;;;;;;;4.30;97.99;101148.41;5052180;28;20041;-72
2022/02/15 20:31:53;;;;;;;43.05;28.60;;;;;;;4.33;96.78;101156.28;5069923;28;20025;-73
2022/02/15 20:34:21;;;;;;;50.35;32.03;;;;;;;4.41;97.10;101163.63;5069950;28;20429;-73
2022/02/15 20:36:48;;;;;;;45.85;28.98;;;;;;;4.34;96.16;101124.84;5051727;28;20024;-74
2022/02/15 20:39:14;;;;;;;44.22;26.15;;;;;;;4.58;95.57;101165.75;5052217;28;20028;-74
2022/02/15 20:41:40;;;;;;;41.25;23.75;;;;;;;4.33;95.54;101122.19;5069675;28;20028;-73
2022/02/15 20:44:05;;;;;;;39.05;21.80;;;;;;;4.38;95.32;101167.72;5069705;28;20028;-75
2022/02/15 20:46:31;;;;;;;33.47;20.73;;;;;;;4.12;96.27;101137.72;5069809;28;20467;-75
2022/02/15 20:48:57;;;;;;;35.28;21.92;;;;;;;4.36;96.86;101164.19;5069666;28;20031;-76
2022/02/15 20:51:25;;;;;;;36.30;22.70;;;;;;;4.26;96.61;101171.06;5069921;28;20414;-75
2022/02/15 20:53:52;;;;;;;34.25;20.35;;;;;;;4.08;97.34;101153.59;5069427;28;20035;-75
2022/02/15 20:56:37;;;;;;;28.20;19.52;;;;;;;3.90;96.68;101119.94;5070095;28;20020;-74
2022/02/15 20:59:03;;;;;;;28.42;19.50;;;;;;;4.27;96.72;101172.84;5007190;28;20041;-75
2022/02/15 21:01:29;;;;;;;33.15;22.00;;;;;;;4.05;95.46;101131.28;5007321;28;20033;-75
2022/02/15 21:03:54;;;;;;;34.88;22.25;;;;;;;4.30;94.59;101163.75;5007314;28;20025;-73
2022/02/15 21:06:20;;;;;;;33.95;20.27;;;;;;;4.28;94.41;101161.84;4990775;28;20056;-74
2022/02/15 21:08:46;;;;;;;30.58;19.85;;;;;;;4.25;95.11;101161.63;5007398;28;20030;-75
2022/02/15 21:11:12;;;;;;;30.92;20.60;;;;;;;4.11;94.44;101155.50;5006931;28;20117;-74
2022/02/15 21:13:38;;;;;;;32.92;21.75;;;;;;;4.04;94.79;101161.81;5007282;28;20424;-74
2022/02/15 21:16:04;;;;;;;32.88;20.10;;;;;;;3.91;94.83;101154.91;5007310;28;20463;-74
2022/02/15 21:18:31;;;;;;;31.70;20.85;;;;;;;3.77;95.43;101153.00;5007413;28;20026;-72
2022/02/15 21:20:57;;;;;;;34.40;21.55;;;;;;;3.68;95.92;101163.41;5006907;28;20454;-73
2022/02/15 21:23:23;;;;;;;33.25;19.85;;;;;;;3.36;97.10;101124.41;5007062;28;20044;-71
2022/02/15 21:25:50;;;;;;;29.55;19.48;;;;;;;3.47;97.61;101150.75;4974861;28;20030;-71
2022/02/15 21:28:15;;;;;;;31.45;20.10;;;;;;;3.40;97.57;101136.66;5007409;28;20412;-73
2022/02/15 21:30:41;;;;;;;31.15;19.35;;;;;;;3.38;98.11;101148.41;4975102;28;20046;-72
2022/02/15 21:33:11;;;;;;;32.35;19.80;;;;;;;3.26;99.45;101157.66;5007964;28;20041;-74
2022/02/15 21:35:38;;;;;;;29.15;19.63;;;;;;;3.43;99.07;101155.50;5006948;28;20858;-77
2022/02/15 21:38:05;;;;;;;32.08;20.45;;;;;;;3.59;98.78;101155.94;5007151;28;20107;-74
2022/02/15 21:40:32;;;;;;;34.65;20.98;;;;;;;3.70;96.84;101151.63;5007118;28;20116;-74
2022/02/15 21:42:59;;;;;;;33.40;21.33;;;;;;;3.79;96.17;101157.44;5007018;28;20022;-74
2022/02/15 21:45:25;;;;;;;34.13;19.95;;;;;;;3.61;97.24;101154.38;5007111;28;20062;-74
2022/02/15 21:47:51;;;;;;;33.03;20.27;;;;;;;3.45;97.42;101160.00;5007019;28;20042;-71
2022/02/15 21:50:17;;;;;;;27.52;20.23;;;;;;;3.09;98.88;101148.72;5059790;28;20037;-73
2022/02/15 21:52:43;;;;;;;30.35;19.60;;;;;;;3.04;99.79;101168.75;5069038;28;20028;-70
2022/02/15 21:55:08;;;;;;;30.83;20.60;;;;;;;2.95;99.71;101154.38;5068945;28;20081;-73
2022/02/15 21:57:35;;;;;;;31.20;19.87;;;;;;;2.86;99.15;101163.09;5071855;28;20020;-73
2022/02/15 22:00:02;;;;;;;29.10;20.13;;;;;;;2.61;98.34;101118.59;5072860;28;20104;-71
2022/02/15 22:02:28;;;;;;;31.23;20.37;;;;;;;2.91;96.93;101168.56;5072873;28;20099;-73
2022/02/15 22:04:56;;;;;;;30.77;20.50;;;;;;;2.86;96.84;101168.19;5072894;28;20108;-70
2022/02/15 22:07:22;;;;;;;32.33;20.77;;;;;;;2.66;96.98;101174.25;5072888;28;20016;-73
2022/02/15 22:09:48;;;;;;;29.70;19.60;;;;;;;2.69;96.95;101177.06;5072469;28;20094;-73
2022/02/15 22:12:14;;;;;;;33.50;20.60;;;;;;;2.49;97.55;101167.78;5073153;28;20126;-74
2022/02/15 22:14:41;;;;;;;36.93;21.33;;;;;;;2.07;98.67;101146.63;5072912;28;20449;-74
2022/02/15 22:17:07;;;;;;;38.60;21.57;;;;;;;2.37;99.28;101183.00;5072363;28;20060;-74
2022/02/15 22:19:33;;;;;;;38.57;21.87;;;;;;;2.33;98.73;101163.13;5072524;28;20086;-71
2022/02/15 22:21:59;;;;;;;35.50;19.80;;;;;;;2.13;98.88;101124.94;5072552;28;20433;-75
2022/02/15 22:24:24;;;;;;;38.17;20.40;;;;;;;2.48;98.33;101177.88;5072666;28;20100;-71
2022/02/15 22:26:50;;;;;;;36.53;21.37;;;;;;;2.39;98.42;101178.94;5054588;28;20430;-74
2022/02/15 22:29:15;;;;;;;39.30;21.13;;;;;;;2.40;98.47;101173.03;5072579;28;20085;-74
2022/02/15 22:31:41;;;;;;;35.90;21.40;;;;;;;2.53;97.62;101174.03;5072425;28;20029;-70
2022/02/15 22:34:06;;;;;;;34.37;20.47;;;;;;;2.29;97.46;101156.00;5072288;28;20024;-73
2022/02/15 22:36:32;;;;;;;35.80;21.03;;;;;;;2.04;98.54;101159.06;5072493;28;20020;-73
2022/02/15 22:38:58;;;;;;;34.07;20.87;;;;;;;2.08;100.00;101188.25;5072416;28;20039;-73
2022/02/15 22:41:23;;;;;;;37.10;21.47;;;;;;;2.10;100.00;101161.25;5072261;28;20048;-74
2022/02/15 22:43:49;;;;;;;34.37;20.57;;;;;;;2.24;100.00;101180.22;5072525;28;20083;-73
2022/02/15 22:46:14;;;;;;;33.80;21.27;;;;;;;2.15;100.00;101166.72;5072283;28;20561;-72
2022/02/15 22:48:40;;;;;;;34.27;20.83;;;;;;;2.26;100.00;101177.03;5071430;28;20112;-73
2022/02/15 22:51:06;;;;;;;37.13;19.50;;;;;;;2.31;99.25;101176.53;5072072;28;20483;-72
2022/02/15 22:53:31;;;;;;;34.13;19.37;;;;;;;2.23;99.18;101181.88;5071566;28;20048;-70
2022/02/15 22:55:57;;;;;;;34.80;19.00;;;;;;;1.71;100.00;101140.25;5072917;28;20086;-70
2022/02/15 22:58:25;;;;;;;35.00;20.70;;;;;;;1.67;100.00;101130.59;5073223;28;20024;-74
2022/02/15 23:00:50;;;;;;;30.90;19.27;;;;;;;2.06;100.00;101187.25;5072433;28;20024;-72
2022/02/15 23:03:21;;;;;;;36.60;19.53;;;;;;;1.96;100.00;101156.66;5072849;28;20047;-73
2022/02/15 23:19:26;;;;;;;32.07;18.63;;;;;;;2.30;100.00;101172.19;5072142;28;20043;-74
2022/02/15 23:21:51;;;;;;;31.03;18.10;;;;;;;2.30;100.00;101169.63;5072476;28;20033;-71
2022/02/15 23:24:17;;;;;;;30.50;18.50;;;;;;;2.17;100.00;101139.72;5071736;28;20426;-68
2022/02/15 23:26:43;;;;;;;30.00;19.87;;;;;;;2.31;100.00;101126.44;5071247;28;20043;-71
2022/02/15 23:29:09;;;;;;;28.13;18.03;;;;;;;2.68;99.36;101166.72;5071515;28;20115;-69
2022/02/15 23:31:34;;;;;;;32.33;19.70;;;;;;;2.82;97.75;101172.94;5070705;28;20609;-70
2022/02/15 23:34:00;;;;;;;30.97;19.37;;;;;;;2.83;96.94;101174.69;5071250;28;20138;-70
2022/02/15 23:36:25;;;;;;;32.97;17.73;;;;;;;2.74;96.57;101173.22;5071093;28;20017;-69
2022/02/15 23:38:51;;;;;;;26.97;18.33;;;;;;;2.58;96.78;101183.84;5071255;28;20054;-74
2022/02/15 23:41:20;;;;;;;31.73;18.93;;;;;;;2.15;98.66;101177.81;5070928;28;20028;-70
2022/02/15 23:43:45;;;;;;;29.90;18.43;;;;;;;2.24;98.81;101177.66;5071394;28;20414;-74
2022/02/15 23:46:13;;;;;;;30.60;17.70;;;;;;;1.73;98.80;101113.28;5070667;28;20048;-71
2022/02/15 23:48:38;;;;;;;27.23;18.17;;;;;;;1.89;99.59;101176.53;5070377;28;20453;-72
2022/02/15 23:51:04;;;;;;;29.93;17.77;;;;;;;1.97;99.23;101174.66;5070545;28;20025;-70
2022/02/15 23:53:29;;;;;;;27.87;18.43;;;;;;;1.78;98.39;101168.03;5071192;28;20027;-70
2022/02/15 23:55:55;;;;;;;34.30;18.23;;;;;;;1.85;98.73;101177.06;5070995;28;20078;-71
2022/02/15 23:58:20;;;;;;;31.90;18.37;;;;;;;1.70;98.72;101184.28;5071496;28;20054;-70
